Terminal Aerodrome Forecast
Issued by NWS

Home | Current Version | Previous Version | Text Only | Print | Product List | Glossary On
Versions: 1 2 3 4 5 6 7 8 9 10 11 12 13 14
000
FTUS44 KHGX 191730
TAFUTS
TAF
KUTS 191730Z 1918/2018 14005KT P6SM SCT050 SCT250
     FM200900 VRB03KT 6SM BR SCT015 SCT250
     FM201400 15005KT P6SM SCT030 SCT250=

USA.gov is the U.S. government's official web portal to all federal, state and local government web resources and services.